createdAt,value
2022-09-20T00:00:24.387Z,2.72
2022-09-20T00:03:10.909Z,3.17
2022-09-20T00:06:00.448Z,2.95
2022-09-20T00:08:46.847Z,2.88
2022-09-20T00:11:34.498Z,2.58
2022-09-20T00:14:19.947Z,2.90
2022-09-20T00:17:06.007Z,2.40
2022-09-20T00:19:51.168Z,2.92
2022-09-20T00:22:36.904Z,2.47
2022-09-20T00:25:22.641Z,2.90
2022-09-20T00:28:09.553Z,2.55
2022-09-20T00:30:56.611Z,2.20
2022-09-20T00:34:01.075Z,2.88
2022-09-20T00:36:46.499Z,2.65
2022-09-20T00:39:32.071Z,2.60
2022-09-20T00:42:17.760Z,2.53
2022-09-20T00:45:06.329Z,2.80
2022-09-20T00:48:02.174Z,3.03
2022-09-20T00:53:46.270Z,3.00
2022-09-20T00:56:35.024Z,2.58
2022-09-20T00:59:27.345Z,2.72
2022-09-20T01:02:20.059Z,2.85
2022-09-20T01:05:07.772Z,2.88
2022-09-20T01:07:54.874Z,2.80
2022-09-20T01:10:40.291Z,2.70
2022-09-20T01:13:25.857Z,2.85
2022-09-20T01:16:15.211Z,2.72
2022-09-20T01:19:10.064Z,2.85
2022-09-20T01:21:56.072Z,2.60
2022-09-20T01:24:57.022Z,3.10
2022-09-20T01:27:53.922Z,3.55
2022-09-20T01:30:46.239Z,2.95
2022-09-20T01:33:37.628Z,2.92
2022-09-20T01:36:34.309Z,3.03
2022-09-20T01:39:44.033Z,2.95
2022-09-20T01:42:46.284Z,2.75
2022-09-20T01:45:32.899Z,2.67
2022-09-20T01:48:35.969Z,2.90
2022-09-20T01:51:59.905Z,2.72
2022-09-20T01:55:06.746Z,3.10
2022-09-20T01:58:22.889Z,2.80
2022-09-20T02:01:36.107Z,3.05
2022-09-20T02:04:48.254Z,2.78
2022-09-20T02:07:52.593Z,3.10
2022-09-20T02:10:57.263Z,2.88
2022-09-20T02:13:58.109Z,2.90
2022-09-20T02:16:58.123Z,2.92
2022-09-20T02:20:03.601Z,2.97
2022-09-20T02:23:11.726Z,2.92
2022-09-20T02:26:25.880Z,2.60
2022-09-20T02:29:40.037Z,2.67
2022-09-20T02:32:43.581Z,2.80
2022-09-20T02:35:52.088Z,2.80
2022-09-20T02:38:52.657Z,3.00
2022-09-20T02:41:51.977Z,2.42
2022-09-20T02:44:46.344Z,2.40
2022-09-20T02:47:40.350Z,2.60
2022-09-20T02:50:34.692Z,2.85
2022-09-20T02:53:43.950Z,2.80
2022-09-20T02:56:47.429Z,2.60
2022-09-20T02:59:38.826Z,2.70
2022-09-20T03:02:30.322Z,2.40
2022-09-20T03:05:32.241Z,2.67
2022-09-20T03:08:31.462Z,2.63
2022-09-20T03:11:56.033Z,2.80
2022-09-20T03:14:54.416Z,2.72
2022-09-20T03:18:11.396Z,2.63
2022-09-20T03:21:22.749Z,2.92
2022-09-20T03:24:14.422Z,2.90
2022-09-20T03:27:10.940Z,2.67
2022-09-20T03:30:16.039Z,2.92
2022-09-20T03:33:33.459Z,2.75
2022-09-20T03:36:38.507Z,2.45
2022-09-20T03:40:01.574Z,3.03
2022-09-20T03:42:51.498Z,2.47
2022-09-20T03:45:44.408Z,2.97
2022-09-20T03:49:02.060Z,2.78
2022-09-20T03:51:56.199Z,2.80
2022-09-20T03:55:23.310Z,2.75
2022-09-20T03:58:24.363Z,3.00
2022-09-20T04:01:34.306Z,3.30
2022-09-20T04:04:25.055Z,2.58
2022-09-20T04:07:31.024Z,2.95
2022-09-20T04:10:34.002Z,2.80
2022-09-20T04:13:51.055Z,2.72
2022-09-20T04:16:51.810Z,2.40
2022-09-20T04:19:49.010Z,2.83
2022-09-20T04:22:35.043Z,3.05
2022-09-20T04:25:30.906Z,2.97
2022-09-20T04:28:35.947Z,2.58
2022-09-20T04:31:33.280Z,2.47
2022-09-20T04:34:44.952Z,2.40
2022-09-20T04:37:36.637Z,2.90
2022-09-20T04:40:43.253Z,2.05
2022-09-20T04:43:56.415Z,2.67
2022-09-20T04:47:10.153Z,2.78
2022-09-20T04:50:17.653Z,2.75
2022-09-20T04:53:14.953Z,2.30
2022-09-20T04:56:19.706Z,2.88
2022-09-20T04:59:10.300Z,2.30
2022-09-20T05:02:40.022Z,3.20
2022-09-20T05:05:58.691Z,2.70
2022-09-20T05:08:47.084Z,2.60
2022-09-20T05:11:43.219Z,2.53
2022-09-20T05:14:56.937Z,2.60
2022-09-20T05:18:13.604Z,2.40
2022-09-20T05:21:04.853Z,2.42
2022-09-20T05:24:12.063Z,2.70
2022-09-20T05:27:49.606Z,2.83
2022-09-20T05:33:54.762Z,2.38
2022-09-20T05:36:51.935Z,2.40
2022-09-20T05:40:01.689Z,3.97
2022-09-20T05:43:00.430Z,2.95
2022-09-20T05:45:56.288Z,2.70
2022-09-20T05:48:57.363Z,2.50
2022-09-20T05:52:00.319Z,2.53
2022-09-20T05:55:14.138Z,2.60
2022-09-20T05:58:31.818Z,2.83
2022-09-20T06:01:29.885Z,2.17
2022-09-20T06:04:25.200Z,2.65
2022-09-20T06:11:08.226Z,3.05
2022-09-20T06:14:03.678Z,2.97
2022-09-20T06:17:27.514Z,2.80
2022-09-20T06:20:29.690Z,2.92
2022-09-20T06:23:15.469Z,3.10
2022-09-20T06:26:07.700Z,2.80
2022-09-20T06:29:00.573Z,2.70
2022-09-20T06:31:46.195Z,2.78
2022-09-20T06:34:32.345Z,2.90
2022-09-20T06:37:54.099Z,2.30
2022-09-20T06:41:05.886Z,2.28
2022-09-20T06:43:51.396Z,2.47
2022-09-20T06:46:36.803Z,2.50
2022-09-20T06:49:24.083Z,2.40
2022-09-20T06:52:15.723Z,2.33
2022-09-20T06:55:01.787Z,2.63
2022-09-20T06:57:47.241Z,3.25
2022-09-20T07:00:32.829Z,2.47
2022-09-20T07:03:19.816Z,2.40
2022-09-20T07:06:05.695Z,2.60
2022-09-20T07:08:51.390Z,2.75
2022-09-20T07:11:36.779Z,2.47
2022-09-20T07:14:29.297Z,2.30
2022-09-20T07:17:14.745Z,2.58
2022-09-20T07:20:01.100Z,2.58
2022-09-20T07:22:46.770Z,2.28
2022-09-20T07:25:32.523Z,2.50
2022-09-20T07:28:20.714Z,2.15
2022-09-20T07:31:05.991Z,2.15
2022-09-20T07:33:51.857Z,2.05
2022-09-20T07:36:37.575Z,2.05
2022-09-20T07:39:22.954Z,1.85
2022-09-20T07:42:08.483Z,2.88
2022-09-20T07:44:55.187Z,2.15
2022-09-20T07:47:42.161Z,2.28
2022-09-20T07:50:27.520Z,2.20
2022-09-20T07:53:13.047Z,2.55
2022-09-20T07:56:03.468Z,2.42
2022-09-20T07:58:52.426Z,1.90
2022-09-20T08:01:38.940Z,2.58
2022-09-20T08:04:24.363Z,2.45
2022-09-20T08:07:09.766Z,2.15
2022-09-20T08:09:55.379Z,2.80
2022-09-20T08:15:48.097Z,2.17
2022-09-20T08:18:34.514Z,2.13
2022-09-20T08:21:19.951Z,3.40
2022-09-20T08:24:05.737Z,2.83
2022-09-20T08:26:50.877Z,2.70
2022-09-20T08:29:36.550Z,2.50
2022-09-20T08:32:22.122Z,2.40
2022-09-20T08:35:07.895Z,2.53
2022-09-20T08:37:55.955Z,2.63
2022-09-20T08:40:41.367Z,2.45
2022-09-20T08:43:32.543Z,2.50
2022-09-20T08:46:23.862Z,3.28
2022-09-20T08:49:21.110Z,2.30
2022-09-20T08:52:10.435Z,2.50
2022-09-20T08:54:59.697Z,2.53
2022-09-20T08:57:53.021Z,2.50
2022-09-20T09:00:39.790Z,2.42
2022-09-20T09:03:28.224Z,2.15
2022-09-20T09:06:18.970Z,2.50
2022-09-20T09:09:04.476Z,2.10
2022-09-20T09:11:51.988Z,1.95
2022-09-20T09:14:48.294Z,1.80
2022-09-20T09:17:33.417Z,1.52
2022-09-20T09:20:24.487Z,1.60
2022-09-20T09:23:25.398Z,2.20
2022-09-20T09:26:23.104Z,1.77
2022-09-20T09:29:24.573Z,1.60
2022-09-20T09:32:29.161Z,1.42
2022-09-20T09:35:29.505Z,1.75
2022-09-20T09:38:21.680Z,1.50
2022-09-20T09:41:26.265Z,1.33
2022-09-20T09:44:27.754Z,1.60
2022-09-20T09:47:27.583Z,1.40
2022-09-20T09:50:23.110Z,1.90
2022-09-20T09:53:15.537Z,1.67
2022-09-20T09:56:18.240Z,1.80
2022-09-20T09:59:10.649Z,1.60
2022-09-20T10:01:56.834Z,1.50
2022-09-20T10:04:54.123Z,1.63
2022-09-20T10:08:07.138Z,1.52
2022-09-20T10:11:07.983Z,1.20
2022-09-20T10:14:31.335Z,1.63
2022-09-20T10:17:34.995Z,1.40
2022-09-20T10:20:46.010Z,1.52
2022-09-20T10:24:02.631Z,1.42
2022-09-20T10:27:05.820Z,1.40
2022-09-20T10:30:14.953Z,1.77
2022-09-20T10:33:31.865Z,1.98
2022-09-20T10:36:35.313Z,1.65
2022-09-20T10:39:37.254Z,1.23
2022-09-20T10:43:00.730Z,1.05
2022-09-20T10:46:32.928Z,1.15
2022-09-20T10:49:24.996Z,1.10
2022-09-20T10:52:16.922Z,2.15
2022-09-20T10:55:16.921Z,1.30
2022-09-20T10:58:11.345Z,1.40
2022-09-20T11:01:08.587Z,1.30
2022-09-20T11:04:36.044Z,1.20
2022-09-20T11:07:36.581Z,1.42
2022-09-20T11:10:58.150Z,1.30
2022-09-20T11:14:13.113Z,1.38
2022-09-20T11:17:01.493Z,11.18
2022-09-20T11:20:07.685Z,1.50
2022-09-20T11:23:02.088Z,1.50
2022-09-20T11:25:53.375Z,1.10
2022-09-20T11:28:49.900Z,1.60
2022-09-20T11:31:46.284Z,1.65
2022-09-20T11:34:36.287Z,1.45
2022-09-20T11:37:25.502Z,1.58
2022-09-20T11:40:33.306Z,0.98
2022-09-20T11:43:19.863Z,1.17
2022-09-20T11:46:10.243Z,1.30
2022-09-20T11:49:01.942Z,1.30
2022-09-20T11:51:53.515Z,1.52
2022-09-20T11:54:59.495Z,1.40
2022-09-20T11:57:45.776Z,1.25
2022-09-20T12:00:35.891Z,1.30
2022-09-20T12:03:40.094Z,1.20
2022-09-20T12:06:28.860Z,1.30
2022-09-20T12:09:26.601Z,1.42
2022-09-20T12:12:37.821Z,1.35
2022-09-20T12:15:39.384Z,1.50
2022-09-20T12:18:54.658Z,1.35
2022-09-20T12:21:58.539Z,1.60
2022-09-20T12:24:45.614Z,1.15
2022-09-20T12:27:32.661Z,1.30
2022-09-20T12:30:22.364Z,1.20
2022-09-20T12:33:20.659Z,1.05
2022-09-20T12:36:18.911Z,1.50
2022-09-20T12:39:16.197Z,1.20
2022-09-20T12:42:10.450Z,1.30
2022-09-20T12:45:07.361Z,1.77
2022-09-20T12:47:56.307Z,1.20
2022-09-20T12:51:00.132Z,1.17
2022-09-20T12:54:00.088Z,1.00
2022-09-20T12:56:46.650Z,1.30
2022-09-20T12:59:33.089Z,1.40
2022-09-20T13:02:52.086Z,1.35
2022-09-20T13:05:46.810Z,1.30
2022-09-20T13:08:36.782Z,1.27
2022-09-20T13:11:34.213Z,1.20
2022-09-20T13:14:26.163Z,1.30
2022-09-20T13:17:27.174Z,1.20
2022-09-20T13:20:22.540Z,1.15
2022-09-20T13:23:27.965Z,1.15
2022-09-20T13:26:15.525Z,1.30
2022-09-20T13:29:02.768Z,0.98
2022-09-20T13:31:48.490Z,1.20
2022-09-20T13:34:34.109Z,1.10
2022-09-20T13:37:23.749Z,1.30
2022-09-20T13:40:39.520Z,1.02
2022-09-20T13:43:50.178Z,1.17
2022-09-20T13:46:44.363Z,1.15
2022-09-20T13:49:32.063Z,1.30
2022-09-20T13:52:26.765Z,1.10
2022-09-20T13:55:28.902Z,0.98
2022-09-20T13:58:23.968Z,0.88
2022-09-20T14:01:32.303Z,1.25
2022-09-20T14:04:23.418Z,0.80
2022-09-20T14:07:08.808Z,1.70
2022-09-20T14:09:55.606Z,1.00
2022-09-20T14:12:41.519Z,2.03
2022-09-20T14:15:32.463Z,1.10
2022-09-20T14:18:19.948Z,1.17
2022-09-20T14:21:11.156Z,1.15
2022-09-20T14:24:04.158Z,1.02
2022-09-20T14:27:06.469Z,0.95
2022-09-20T14:29:56.295Z,1.73
2022-09-20T14:32:54.406Z,2.05
2022-09-20T14:35:50.649Z,0.90
2022-09-20T14:38:36.964Z,1.02
2022-09-20T14:41:34.299Z,1.00
2022-09-20T14:44:31.867Z,1.02
2022-09-20T14:47:16.947Z,1.02
2022-09-20T14:50:04.060Z,1.10
2022-09-20T14:53:00.722Z,1.27
2022-09-20T14:56:06.108Z,1.70
2022-09-20T15:02:13.913Z,1.40
2022-09-20T15:05:00.994Z,1.50
2022-09-20T15:07:46.882Z,1.60
2022-09-20T15:10:32.337Z,1.50
2022-09-20T15:13:17.999Z,1.30
2022-09-20T15:16:03.733Z,1.60
2022-09-20T15:18:49.035Z,1.95
2022-09-20T15:21:34.572Z,1.73
2022-09-20T15:24:20.325Z,1.40
2022-09-20T15:27:06.400Z,1.70
2022-09-20T15:29:51.774Z,1.30
2022-09-20T15:32:37.442Z,1.10
2022-09-20T15:35:22.871Z,1.27
2022-09-20T15:38:11.123Z,2.00
2022-09-20T15:40:56.770Z,1.27
2022-09-20T15:43:43.246Z,1.20
2022-09-20T15:46:28.537Z,1.08
2022-09-20T15:49:13.989Z,1.10
2022-09-20T15:51:59.377Z,1.10
2022-09-20T15:54:44.997Z,1.02
2022-09-20T15:57:31.688Z,1.00
2022-09-20T16:00:20.148Z,1.20
2022-09-20T16:03:05.725Z,1.35
2022-09-20T16:06:03.474Z,1.20
2022-09-20T16:08:50.108Z,1.20
2022-09-20T16:11:36.645Z,1.20
2022-09-20T16:14:22.004Z,1.15
2022-09-20T16:17:07.336Z,1.05
2022-09-20T16:19:52.860Z,1.30
2022-09-20T16:22:38.390Z,1.20
2022-09-20T16:25:23.774Z,1.50
2022-09-20T16:28:09.403Z,1.38
2022-09-20T16:31:01.147Z,1.10
2022-09-20T16:33:46.704Z,1.30
2022-09-20T16:36:32.998Z,1.40
2022-09-20T16:39:19.083Z,1.50
2022-09-20T16:42:06.312Z,1.70
2022-09-20T16:44:51.692Z,1.20
2022-09-20T16:47:41.210Z,1.90
2022-09-20T16:50:26.261Z,2.30
2022-09-20T16:53:11.695Z,2.70
2022-09-20T16:55:57.343Z,1.85
2022-09-20T16:58:43.477Z,1.30
2022-09-20T17:01:29.815Z,1.17
2022-09-20T17:04:18.834Z,1.63
2022-09-20T17:07:03.953Z,1.50
2022-09-20T17:09:49.308Z,8.07
2022-09-20T17:12:41.428Z,4.78
2022-09-20T17:15:26.722Z,2.20
2022-09-20T17:18:15.587Z,2.00
2022-09-20T17:21:05.962Z,1.95
2022-09-20T17:23:55.304Z,1.70
2022-09-20T17:26:44.649Z,1.55
2022-09-20T17:29:29.893Z,1.50
2022-09-20T17:32:15.404Z,4.90
2022-09-20T17:35:01.299Z,2.20
2022-09-20T17:37:46.786Z,2.28
2022-09-20T17:40:32.493Z,2.65
2022-09-20T17:43:18.007Z,2.13
2022-09-20T17:46:13.694Z,2.15
2022-09-20T17:51:48.293Z,2.53
2022-09-20T17:54:33.901Z,2.67
2022-09-20T17:57:19.863Z,3.95
2022-09-20T18:00:05.591Z,4.13
2022-09-20T18:02:51.332Z,3.75
2022-09-20T18:05:36.796Z,2.40
2022-09-20T18:08:22.299Z,2.30
2022-09-20T18:11:08.424Z,2.55
2022-09-20T18:13:53.755Z,3.00
2022-09-20T18:16:39.329Z,3.05
2022-09-20T18:19:25.048Z,2.50
2022-09-20T18:22:10.573Z,2.80
2022-09-20T18:24:56.081Z,2.60
2022-09-20T18:27:42.098Z,2.15
2022-09-20T18:30:27.416Z,1.90
2022-09-20T18:33:15.713Z,2.20
2022-09-20T18:36:03.381Z,2.45
2022-09-20T18:38:54.167Z,2.17
2022-09-20T18:41:42.754Z,2.13
2022-09-20T18:44:30.440Z,2.28
2022-09-20T18:47:15.600Z,2.17
2022-09-20T18:50:01.618Z,2.10
2022-09-20T18:52:47.781Z,2.10
2022-09-20T18:55:34.528Z,2.00
2022-09-20T18:58:21.808Z,2.58
2022-09-20T19:01:26.242Z,2.10
2022-09-20T19:04:33.887Z,2.05
2022-09-20T19:07:36.641Z,2.20
2022-09-20T19:10:53.671Z,2.42
2022-09-20T19:13:59.353Z,2.25
2022-09-20T19:16:48.735Z,2.08
2022-09-20T19:20:00.372Z,2.08
2022-09-20T19:22:56.218Z,2.15
2022-09-20T19:25:44.384Z,1.90
2022-09-20T19:28:30.027Z,1.98
2022-09-20T19:31:32.699Z,1.90
2022-09-20T19:34:21.528Z,1.80
2022-09-20T19:37:18.533Z,1.80
2022-09-20T19:40:26.310Z,1.83
2022-09-20T19:43:23.857Z,2.53
2022-09-20T19:46:42.924Z,1.80
2022-09-20T19:49:37.352Z,1.67
2022-09-20T19:52:23.824Z,1.77
2022-09-20T19:55:13.613Z,1.70
2022-09-20T19:57:59.473Z,2.15
2022-09-20T20:00:46.146Z,3.78
2022-09-20T20:03:32.083Z,3.40
2022-09-20T20:06:47.532Z,2.20
2022-09-20T20:09:47.237Z,2.35
2022-09-20T20:13:30.205Z,2.10
2022-09-20T20:16:25.217Z,1.80
2022-09-20T20:19:34.899Z,2.40
2022-09-20T20:22:48.351Z,2.10
2022-09-20T20:25:48.414Z,1.88
2022-09-20T20:28:33.950Z,1.70
2022-09-20T20:31:22.981Z,1.83
2022-09-20T20:34:08.860Z,1.90
2022-09-20T20:37:00.874Z,1.95
2022-09-20T20:39:46.148Z,1.70
2022-09-20T20:42:31.748Z,1.60
2022-09-20T20:45:19.655Z,1.77
2022-09-20T20:48:05.060Z,1.77
2022-09-20T20:51:03.641Z,2.53
2022-09-20T20:53:51.041Z,1.92
2022-09-20T20:56:36.554Z,1.88
2022-09-20T20:59:21.982Z,2.28
2022-09-20T21:02:08.747Z,2.13
2022-09-20T21:04:54.072Z,2.42
2022-09-20T21:07:39.616Z,2.30
2022-09-20T21:10:25.682Z,2.20
2022-09-20T21:13:10.997Z,3.13
2022-09-20T21:16:22.460Z,2.58
2022-09-20T21:19:09.529Z,2.70
2022-09-20T21:21:54.985Z,2.55
2022-09-20T21:24:40.761Z,2.95
2022-09-20T21:27:26.334Z,3.72
2022-09-20T21:30:12.088Z,3.70
2022-09-20T21:32:59.663Z,3.28
2022-09-20T21:35:44.885Z,3.25
2022-09-20T21:38:34.567Z,3.33
2022-09-20T21:41:29.350Z,3.50
2022-09-20T21:44:15.057Z,3.50
2022-09-20T21:47:00.597Z,3.35
2022-09-20T21:49:47.553Z,2.88
2022-09-20T21:52:33.153Z,2.97
2022-09-20T21:55:18.631Z,3.50
2022-09-20T21:58:04.235Z,5.05
2022-09-20T22:01:04.890Z,7.53
2022-09-20T22:03:53.029Z,7.80
2022-09-20T22:06:43.750Z,7.82
2022-09-20T22:09:29.405Z,7.28
2022-09-20T22:12:15.007Z,6.18
2022-09-20T22:15:00.471Z,5.57
2022-09-20T22:17:45.836Z,5.05
2022-09-20T22:20:31.306Z,4.55
2022-09-20T22:23:17.045Z,4.55
2022-09-20T22:26:10.492Z,4.32
2022-09-20T22:28:56.809Z,4.40
2022-09-20T22:31:45.714Z,6.78
2022-09-20T22:34:31.324Z,6.40
2022-09-20T22:37:17.749Z,5.70
2022-09-20T22:40:03.310Z,4.72
2022-09-20T22:42:48.976Z,5.47
2022-09-20T22:45:35.072Z,5.13
2022-09-20T22:48:21.035Z,3.97
2022-09-20T22:51:09.240Z,4.53
2022-09-20T22:53:55.081Z,5.53
2022-09-20T22:56:43.609Z,4.82
2022-09-20T22:59:28.998Z,4.38
2022-09-20T23:02:14.509Z,4.60
2022-09-20T23:05:00.019Z,4.20
2022-09-20T23:07:49.001Z,4.50
2022-09-20T23:10:34.518Z,4.50
2022-09-20T23:13:20.091Z,4.05
2022-09-20T23:16:21.286Z,3.78
2022-09-20T23:19:08.273Z,3.92
2022-09-20T23:21:53.867Z,4.30
2022-09-20T23:24:39.516Z,3.92
2022-09-20T23:27:24.970Z,4.78
2022-09-20T23:30:11.171Z,4.10
2022-09-20T23:32:56.910Z,3.70
2022-09-20T23:35:45.831Z,3.42
2022-09-20T23:38:31.314Z,4.45
2022-09-20T23:41:19.508Z,4.88
2022-09-20T23:44:06.849Z,5.47
2022-09-20T23:46:52.270Z,5.50
2022-09-20T23:49:37.896Z,4.28
2022-09-20T23:52:23.520Z,4.20
2022-09-20T23:55:09.471Z,4.43
2022-09-20T23:57:59.334Z,4.30
